Edwards Crossroads, North Carolina
Current Conditions -  °F | °C
As of 10:35 PM on Saturday 24 Jan 2015 (Local Time) from KGEV Reporting Station
Scattered Clouds Scattered Clouds  
Wind Chill: 18°   Ceiling: Unl
Heat Index: 32°   Visibility: 10mi
Dew Point: 22°   Wind: 28mph
Humidity: 69%   Direction: 300°WNW
Pressure: 29.68"   Gusts: 55mph
Location:  36.5212°N, 81.1574°W
Report Text: KGEV 250335Z AUTO 30024G48KT 10SM SCT020 00/M05 A2968 RMK AO2 T10021053
Loading
Personal Weather Stations






























Interactive Weather Map New forecast layout! Learn more

10-Day Weather Forecast

Advertisements
Track Severe Weather on mobile